Weather at Northeastern Vermont Regional Hospital Heliport

Public forecast

Using degrees Fahrenheit for public forecast. Weather courtesy of forecast.io.

Closest aviation weather report (METAR) to Northeastern Vermont Regional Hospital Heliport

Closest report is Caledonia County Airport, 7.4 nm (13.7 km) N.

2024/07/25 08:55 (retrieved 13 minutes ago)

KCDA 250855Z AUTO 12006KT 10SM SCT012 OVC022 18/17 A3004 RMK AO2 T01800170

Closest aviation forecast (TAF) to Northeastern Vermont Regional Hospital Heliport

Closest forecast is Mount Washington Regional Airport, 20.5 nm (37.9 km) ESE.

2024/07/25 06:22 (retrieved 3 hours ago)

TAF KHIE 250520Z 2506/2606 17004KT P6SM OVC050 FM251300 25005KT P6SM BKN035